Time;durP1;ratioP1;P1;durP2;ratioP2;P2;SDS_P1;SDS_P2;PMS_P1;PMS_P2;Temp;Humidity;BMP_temperature;BMP_pressure;BME280_temperature;BME280_humidity;BME280_pressure;Samples;Min_cycle;Max_cycle;Signal;HPM_P1;HPM_P2
2021/08/26 00:05:43;;;;;;;20.13;4.37;;;15.40;92.10;;;;;;5032034;28;20570;-73
2021/08/26 00:06:57;;;;;;;15.13;3.60;;;15.40;92.20;;;;;;5030391;28;20050;-74
2021/08/26 00:09:23;;;;;;;14.17;3.53;;;15.40;92.30;;;;;;5032227;28;20107;-75
2021/08/26 00:11:49;;;;;;;22.73;4.67;;;15.40;92.40;;;;;;5030726;28;20068;-74
2021/08/26 00:14:16;;;;;;;16.47;4.07;;;15.40;92.50;;;;;;5031097;28;20052;-74
2021/08/26 00:16:42;;;;;;;15.13;4.03;;;15.40;92.60;;;;;;5031703;28;20132;-74
2021/08/26 00:19:14;;;;;;;18.83;3.83;;;15.40;92.70;;;;;;5031965;28;20041;-73
2021/08/26 00:21:41;;;;;;;14.43;4.10;;;15.40;92.80;;;;;;5029469;28;20486;-74
2021/08/26 00:24:08;;;;;;;13.33;3.33;;;15.40;92.90;;;;;;5031997;28;20046;-74
2021/08/26 00:26:35;;;;;;;17.63;3.93;;;15.40;93.10;;;;;;5031614;28;20095;-74
2021/08/26 00:29:02;;;;;;;15.93;3.97;;;15.30;93.60;;;;;;5029120;28;20045;-74
2021/08/26 00:31:27;;;;;;;19.63;3.70;;;15.30;93.30;;;;;;5031683;28;20045;-73
2021/08/26 00:33:53;;;;;;;21.77;4.33;;;15.30;93.40;;;;;;5029267;28;20101;-75
2021/08/26 00:36:18;;;;;;;18.40;3.03;;;15.40;93.50;;;;;;5031696;28;20145;-75
2021/08/26 00:38:47;;;;;;;18.97;3.43;;;15.40;93.40;;;;;;5031587;28;20423;-74
2021/08/26 00:41:16;;;;;;;18.87;3.43;;;15.40;93.30;;;;;;5030743;28;20115;-75
2021/08/26 00:43:42;;;;;;;14.53;3.47;;;15.40;93.30;;;;;;5031407;28;20041;-74
2021/08/26 00:46:13;;;;;;;17.87;3.97;;;15.40;93.30;;;;;;5031741;28;20033;-73
2021/08/26 00:48:48;;;;;;;19.35;3.92;;;15.40;93.30;;;;;;5029620;28;20079;-75
2021/08/26 00:51:14;;;;;;;15.57;3.60;;;15.50;93.40;;;;;;5031448;28;20045;-74
2021/08/26 00:53:40;;;;;;;18.90;3.63;;;15.50;93.50;;;;;;5030025;28;20060;-74
2021/08/26 00:56:18;;;;;;;13.43;4.23;;;15.50;93.50;;;;;;5029279;28;20056;-74
2021/08/26 00:58:50;;;;;;;13.63;3.20;;;15.50;93.60;;;;;;5031166;28;20099;-73
2021/08/26 01:01:27;;;;;;;16.47;2.73;;;15.50;93.50;;;;;;5030001;28;20100;-72
2021/08/26 01:04:01;;;;;;;11.97;2.17;;;15.50;93.10;;;;;;5030411;28;20049;-74
2021/08/26 01:06:39;;;;;;;10.07;2.07;;;15.50;92.90;;;;;;5031352;28;20128;-74
2021/08/26 01:09:09;;;;;;;12.40;2.43;;;15.50;92.50;;;;;;5030641;28;20383;-75
2021/08/26 01:11:37;;;;;;;12.37;2.07;;;15.50;92.20;;;;;;5031647;28;20049;-74
2021/08/26 01:14:03;;;;;;;8.90;2.00;;;15.50;92.00;;;;;;5029587;28;20077;-74
2021/08/26 01:16:29;;;;;;;10.63;2.00;;;15.40;92.00;;;;;;5030631;28;20422;-74
2021/08/26 01:18:54;;;;;;;8.50;1.93;;;15.50;92.20;;;;;;5031488;28;20057;-75
2021/08/26 01:21:22;;;;;;;9.77;1.80;;;15.40;92.40;;;;;;5033819;28;20080;-74
2021/08/26 01:23:51;;;;;;;15.83;2.27;;;15.30;92.60;;;;;;5033678;28;20041;-74
2021/08/26 01:26:26;;;;;;;14.80;2.73;;;15.30;92.80;;;;;;5033465;28;20045;-73
2021/08/26 01:28:54;;;;;;;13.37;2.80;;;15.20;93.00;;;;;;5033317;28;20073;-74
2021/08/26 01:31:21;;;;;;;17.43;2.97;;;15.20;93.30;;;;;;5034021;28;20053;-74
2021/08/26 01:33:51;;;;;;;14.23;2.93;;;15.20;93.50;;;;;;5033340;28;20045;-74
2021/08/26 01:36:17;;;;;;;18.27;3.33;;;15.20;93.70;;;;;;5033127;28;20075;-73
2021/08/26 01:38:47;;;;;;;15.53;2.87;;;15.10;93.90;;;;;;5033947;28;20176;-73
2021/08/26 01:41:16;;;;;;;10.70;2.60;;;15.10;94.10;;;;;;5033496;28;20477;-74
2021/08/26 01:43:45;;;;;;;13.03;3.07;;;15.00;94.30;;;;;;5034249;28;20502;-75
2021/08/26 01:46:11;;;;;;;13.97;2.43;;;15.00;94.40;;;;;;5032749;28;20057;-74
2021/08/26 01:48:36;;;;;;;13.70;2.40;;;15.00;94.60;;;;;;5033350;28;20072;-74
2021/08/26 01:51:02;;;;;;;12.20;2.63;;;14.90;94.60;;;;;;5033992;28;20045;-74
2021/08/26 01:53:27;;;;;;;11.70;2.67;;;14.90;94.80;;;;;;5032429;28;20053;-74
2021/08/26 01:55:53;;;;;;;14.40;2.40;;;14.90;94.80;;;;;;5032773;28;20049;-75
2021/08/26 01:58:18;;;;;;;13.07;2.67;;;14.90;94.90;;;;;;5032592;28;20076;-74
2021/08/26 02:00:44;;;;;;;11.10;2.43;;;14.90;94.90;;;;;;5032618;28;20102;-75
2021/08/26 02:03:10;;;;;;;12.50;2.53;;;14.90;95.00;;;;;;5034269;28;20041;-73
2021/08/26 02:05:35;;;;;;;13.97;2.77;;;14.90;95.00;;;;;;5031935;28;20034;-74
2021/08/26 02:08:01;;;;;;;14.57;2.50;;;14.90;95.00;;;;;;5033893;28;20041;-74
2021/08/26 02:10:27;;;;;;;10.23;2.83;;;14.90;95.00;;;;;;5033167;28;20045;-73
2021/08/26 02:12:52;;;;;;;16.00;2.67;;;14.90;95.00;;;;;;5032383;28;20068;-74
2021/08/26 02:15:18;;;;;;;13.57;2.63;;;14.90;95.10;;;;;;5033956;28;20045;-73
2021/08/26 02:17:45;;;;;;;16.13;2.43;;;14.90;95.10;;;;;;5033840;28;20045;-73
2021/08/26 02:20:11;;;;;;;21.77;2.87;;;14.90;95.10;;;;;;5033039;28;20092;-73
2021/08/26 02:22:37;;;;;;;15.63;2.43;;;14.90;95.10;;;;;;5034134;28;20053;-72
2021/08/26 02:25:06;;;;;;;14.33;2.60;;;14.90;95.10;;;;;;5032521;28;20041;-73
2021/08/26 02:27:31;;;;;;;14.27;2.00;;;14.90;95.10;;;;;;5031989;28;20110;-74
2021/08/26 02:29:57;;;;;;;13.60;3.53;;;14.90;95.00;;;;;;5031542;28;20136;-73
2021/08/26 02:32:22;;;;;;;12.90;1.90;;;14.90;95.00;;;;;;5032406;28;20420;-73
2021/08/26 02:34:48;;;;;;;13.97;3.10;;;14.80;95.00;;;;;;5032765;28;20061;-73
2021/08/26 02:37:14;;;;;;;14.47;2.20;;;14.90;95.00;;;;;;5033667;28;20037;-74
2021/08/26 02:39:39;;;;;;;12.17;2.30;;;14.80;94.90;;;;;;5031965;28;20060;-73
2021/08/26 02:42:05;;;;;;;11.43;1.80;;;14.80;94.90;;;;;;5031948;28;20469;-73
2021/08/26 02:44:30;;;;;;;12.53;1.87;;;14.90;94.90;;;;;;5034324;28;20040;-73
2021/08/26 02:46:56;;;;;;;11.60;1.90;;;14.90;94.90;;;;;;5033230;28;20072;-73
2021/08/26 02:49:22;;;;;;;7.40;1.90;;;14.90;94.90;;;;;;5032446;28;20554;-73
2021/08/26 02:51:47;;;;;;;10.70;1.70;;;14.80;94.80;;;;;;5033219;28;20052;-72
2021/08/26 02:54:13;;;;;;;11.17;2.27;;;14.80;94.80;;;;;;5033258;28;20120;-73
2021/08/26 02:56:39;;;;;;;13.53;2.70;;;14.90;94.80;;;;;;5032360;28;20099;-73
2021/08/26 02:59:04;;;;;;;12.13;2.20;;;14.80;94.80;;;;;;5033255;28;20037;-72
2021/08/26 03:01:30;;;;;;;8.67;1.97;;;14.80;94.80;;;;;;5032961;28;20053;-74
2021/08/26 03:03:55;;;;;;;10.77;2.17;;;14.80;94.80;;;;;;5030998;28;20106;-73
2021/08/26 03:06:21;;;;;;;6.43;1.87;;;14.80;94.80;;;;;;5032071;28;20148;-73
2021/08/26 03:08:46;;;;;;;9.90;1.87;;;14.80;94.80;;;;;;5030567;28;20045;-73
2021/08/26 03:11:12;;;;;;;12.07;2.73;;;14.80;94.90;;;;;;5033058;28;20040;-73
2021/08/26 03:13:38;;;;;;;12.40;2.43;;;14.80;95.00;;;;;;5032812;28;20049;-74
2021/08/26 03:16:05;;;;;;;12.50;2.77;;;14.80;95.10;;;;;;5031972;28;20138;-74
2021/08/26 03:18:30;;;;;;;11.23;2.93;;;14.80;95.10;;;;;;5031524;28;20056;-73
2021/08/26 03:20:56;;;;;;;12.20;2.30;;;14.80;95.20;;;;;;5032181;28;20061;-73
2021/08/26 03:23:21;;;;;;;14.00;3.03;;;14.80;95.40;;;;;;5031887;28;20045;-73
2021/08/26 03:25:47;;;;;;;16.73;2.73;;;14.80;95.50;;;;;;5031080;28;20132;-73
2021/08/26 03:28:13;;;;;;;15.70;2.80;;;14.80;95.60;;;;;;5031292;28;20401;-73
2021/08/26 03:30:39;;;;;;;11.37;2.40;;;14.80;95.70;;;;;;5030274;28;20534;-73
2021/08/26 03:33:04;;;;;;;16.17;2.57;;;14.80;95.80;;;;;;5031074;28;20049;-73
2021/08/26 03:35:30;;;;;;;12.43;2.60;;;14.80;95.90;;;;;;5033038;28;20048;-73
2021/08/26 03:37:56;;;;;;;17.17;3.30;;;14.80;95.90;;;;;;5031239;28;20498;-73
2021/08/26 03:40:21;;;;;;;17.00;3.03;;;14.80;96.00;;;;;;5032616;28;20084;-73
2021/08/26 03:42:47;;;;;;;10.33;2.50;;;14.70;96.00;;;;;;5031183;28;20040;-73
2021/08/26 03:45:12;;;;;;;16.90;3.17;;;14.70;96.10;;;;;;5031614;28;20042;-73
2021/08/26 03:47:38;;;;;;;17.37;3.03;;;14.70;96.20;;;;;;5032197;28;20080;-74
2021/08/26 03:50:04;;;;;;;10.93;2.63;;;14.80;96.20;;;;;;5031438;28;20045;-73
2021/08/26 03:52:30;;;;;;;12.73;2.70;;;14.80;96.30;;;;;;5031639;28;20485;-74
2021/08/26 03:54:56;;;;;;;15.57;2.60;;;14.80;96.30;;;;;;5030690;28;20132;-74
2021/08/26 03:57:21;;;;;;;7.87;3.13;;;14.70;96.30;;;;;;5032158;28;20085;-73
2021/08/26 03:59:47;;;;;;;18.03;3.00;;;14.70;96.30;;;;;;5030946;28;20038;-73
2021/08/26 04:02:12;;;;;;;16.37;3.70;;;14.70;96.30;;;;;;5032091;28;20475;-73
2021/08/26 04:04:38;;;;;;;20.33;3.23;;;14.70;96.30;;;;;;5032058;28;20509;-73
2021/08/26 04:07:03;;;;;;;16.30;2.63;;;14.70;96.30;;;;;;5030336;28;20057;-73
2021/08/26 04:09:29;;;;;;;16.83;3.73;;;14.70;96.40;;;;;;5031711;28;20055;-73
2021/08/26 04:11:55;;;;;;;17.27;3.43;;;14.70;96.40;;;;;;5029674;28;20045;-73
2021/08/26 04:14:20;;;;;;;16.30;2.87;;;14.70;96.50;;;;;;5031675;28;20490;-73
2021/08/26 04:16:46;;;;;;;17.83;3.30;;;14.70;96.50;;;;;;5031313;28;20041;-73
2021/08/26 04:19:11;;;;;;;19.37;5.57;;;14.70;96.50;;;;;;5030959;28;20435;-73
2021/08/26 04:21:37;;;;;;;17.53;3.03;;;14.80;96.60;;;;;;5031532;28;20053;-72
2021/08/26 04:24:03;;;;;;;15.33;3.00;;;14.80;96.60;;;;;;5031308;28;20054;-73
2021/08/26 04:26:28;;;;;;;13.10;3.60;;;14.80;96.60;;;;;;5031246;28;20045;-73
2021/08/26 04:28:54;;;;;;;13.63;3.60;;;14.80;96.60;;;;;;5033773;28;20045;-72
2021/08/26 04:31:19;;;;;;;14.50;3.17;;;14.80;96.60;;;;;;5031489;28;20110;-73
2021/08/26 04:33:45;;;;;;;13.67;3.20;;;14.80;96.60;;;;;;5029380;28;20103;-73
2021/08/26 04:36:11;;;;;;;18.60;3.73;;;14.70;96.60;;;;;;5031647;28;20091;-73
2021/08/26 04:38:37;;;;;;;20.93;3.87;;;14.70;96.70;;;;;;5031630;28;20049;-73
2021/08/26 04:41:03;;;;;;;16.67;3.53;;;14.70;96.70;;;;;;5030289;28;20049;-73
2021/08/26 04:43:28;;;;;;;13.70;3.77;;;14.70;96.80;;;;;;5030406;28;20046;-75
2021/08/26 04:45:54;;;;;;;20.17;4.40;;;14.70;96.90;;;;;;5031184;28;20041;-73
2021/08/26 04:48:19;;;;;;;15.57;3.83;;;14.70;96.90;;;;;;5029832;28;20072;-73
2021/08/26 04:50:45;;;;;;;14.73;3.60;;;14.60;96.90;;;;;;5030089;28;20049;-72
2021/08/26 04:53:10;;;;;;;13.10;3.63;;;14.60;97.00;;;;;;5031106;28;20041;-72
2021/08/26 04:55:36;;;;;;;15.83;4.03;;;14.60;97.00;;;;;;5034737;28;20044;-73
2021/08/26 04:58:02;;;;;;;15.23;3.30;;;14.60;97.10;;;;;;5035206;28;20041;-72
2021/08/26 05:00:27;;;;;;;18.50;4.00;;;14.60;97.10;;;;;;5035133;28;20045;-72
2021/08/26 05:02:53;;;;;;;16.93;4.53;;;14.60;97.20;;;;;;5034314;28;20540;-73
2021/08/26 05:05:18;;;;;;;17.83;3.93;;;14.60;97.20;;;;;;5035370;28;20045;-72
2021/08/26 05:07:44;;;;;;;17.07;3.80;;;14.60;97.20;;;;;;5035022;28;20037;-73
2021/08/26 05:10:10;;;;;;;19.87;4.83;;;14.60;97.30;;;;;;5034483;28;20053;-73
2021/08/26 05:12:35;;;;;;;19.40;4.50;;;14.70;97.40;;;;;;5035357;28;20045;-72
2021/08/26 05:15:01;;;;;;;16.47;4.63;;;14.70;97.40;;;;;;5046193;28;20091;-73
2021/08/26 05:17:26;;;;;;;19.43;4.30;;;14.80;97.40;;;;;;5054251;28;20045;-72
2021/08/26 05:19:52;;;;;;;18.63;4.07;;;14.80;97.40;;;;;;5054133;28;20150;-72
2021/08/26 05:22:18;;;;;;;17.27;4.60;;;14.80;97.40;;;;;;5054313;28;20041;-72
2021/08/26 05:24:44;;;;;;;17.77;4.50;;;14.90;97.40;;;;;;5054400;28;20497;-73
2021/08/26 05:27:09;;;;;;;25.60;4.90;;;14.90;97.40;;;;;;5053565;28;20049;-72
2021/08/26 05:29:35;;;;;;;20.63;4.10;;;14.90;97.40;;;;;;5053794;28;20107;-72
2021/08/26 05:32:01;;;;;;;15.20;4.23;;;15.00;97.40;;;;;;5054211;28;20096;-72
2021/08/26 05:34:27;;;;;;;23.20;4.93;;;15.00;97.40;;;;;;5053415;28;20045;-73
2021/08/26 05:36:53;;;;;;;20.03;5.37;;;15.00;97.40;;;;;;5053633;28;20044;-73
2021/08/26 05:39:18;;;;;;;21.97;5.13;;;15.00;97.40;;;;;;5053138;28;20077;-72
2021/08/26 05:41:44;;;;;;;22.37;4.77;;;15.10;97.40;;;;;;5054294;28;20041;-72
2021/08/26 05:44:15;;;;;;;23.33;4.90;;;15.10;97.40;;;;;;5053723;28;20037;-73
2021/08/26 05:46:41;;;;;;;27.43;5.50;;;15.10;97.40;;;;;;5054319;28;20052;-73
2021/08/26 05:49:07;;;;;;;19.17;5.17;;;15.10;97.40;;;;;;5054700;28;20072;-72
2021/08/26 05:51:33;;;;;;;19.73;5.67;;;15.10;97.40;;;;;;5053420;28;20041;-72
2021/08/26 05:53:58;;;;;;;18.83;5.13;;;15.10;97.40;;;;;;5053867;28;20521;-72
2021/08/26 05:56:24;;;;;;;23.07;5.30;;;15.10;97.40;;;;;;5054109;28;20053;-73
2021/08/26 05:58:49;;;;;;;21.23;5.07;;;15.10;97.40;;;;;;5052921;28;20033;-73
2021/08/26 06:01:15;;;;;;;20.70;5.13;;;15.10;97.50;;;;;;5054241;28;20839;-73
2021/08/26 06:03:40;;;;;;;22.07;5.33;;;15.20;97.50;;;;;;5052899;28;20044;-73
2021/08/26 06:06:06;;;;;;;25.90;5.13;;;15.20;97.50;;;;;;5052877;28;20333;-73
2021/08/26 06:08:31;;;;;;;15.13;4.67;;;15.20;97.50;;;;;;5052635;28;20127;-72
2021/08/26 06:10:57;;;;;;;24.63;6.23;;;15.30;97.50;;;;;;5052198;28;20041;-74
2021/08/26 06:13:23;;;;;;;25.63;5.97;;;15.30;97.50;;;;;;5053017;28;20071;-73
2021/08/26 06:15:49;;;;;;;30.20;6.33;;;15.40;97.50;;;;;;5053397;28;20462;-72
2021/08/26 06:18:15;;;;;;;24.30;7.23;;;15.40;97.50;;;;;;5053546;28;20466;-72
2021/08/26 06:20:42;;;;;;;28.80;7.83;;;15.50;97.50;;;;;;5051080;28;20106;-71
2021/08/26 06:23:08;;;;;;;24.43;6.37;;;15.50;97.50;;;;;;5052506;28;20059;-71
2021/08/26 06:25:34;;;;;;;25.87;6.17;;;15.50;97.50;;;;;;5052738;28;20044;-71
2021/08/26 06:28:00;;;;;;;25.93;6.20;;;15.60;97.50;;;;;;5053286;28;20052;-72
2021/08/26 06:30:26;;;;;;;26.33;5.90;;;15.60;97.50;;;;;;5053349;28;20041;-72
2021/08/26 06:32:52;;;;;;;26.67;6.07;;;15.60;97.40;;;;;;5052463;28;20112;-71
2021/08/26 06:35:18;;;;;;;25.97;6.17;;;15.70;97.50;;;;;;5053342;28;20049;-72
2021/08/26 06:37:44;;;;;;;21.10;6.17;;;15.70;97.40;;;;;;5052885;28;20048;-71
2021/08/26 06:40:10;;;;;;;24.47;6.60;;;15.70;97.40;;;;;;5052343;28;20037;-71
2021/08/26 06:42:36;;;;;;;20.03;5.03;;;15.80;97.50;;;;;;5051941;28;20045;-72
2021/08/26 06:45:01;;;;;;;24.60;6.87;;;15.80;97.40;;;;;;5052854;28;20117;-72
2021/08/26 06:47:27;;;;;;;24.90;5.67;;;15.90;97.40;;;;;;5051333;28;20033;-72
2021/08/26 06:49:53;;;;;;;27.17;6.83;;;15.90;97.30;;;;;;5051188;28;20045;-74
2021/08/26 06:52:18;;;;;;;20.20;5.47;;;15.90;97.30;;;;;;5053005;28;20446;-73
2021/08/26 06:54:44;;;;;;;23.77;5.73;;;16.00;97.20;;;;;;5051863;28;20040;-72
2021/08/26 06:57:09;;;;;;;24.60;5.13;;;16.00;97.10;;;;;;5052812;28;20076;-72
2021/08/26 06:59:35;;;;;;;24.03;5.70;;;16.10;96.90;;;;;;5051351;28;20049;-72
2021/08/26 07:02:00;;;;;;;27.73;7.00;;;16.10;96.80;;;;;;5051744;28;20045;-72
2021/08/26 07:04:26;;;;;;;22.27;5.83;;;16.20;96.70;;;;;;5051809;28;20063;-72
2021/08/26 07:06:53;;;;;;;27.07;5.27;;;16.20;96.60;;;;;;5052412;28;20065;-71
2021/08/26 07:09:20;;;;;;;26.07;6.40;;;16.30;96.50;;;;;;5051846;28;20041;-72
2021/08/26 07:11:45;;;;;;;22.20;5.53;;;16.30;96.30;;;;;;5051391;28;20071;-73
2021/08/26 07:14:11;;;;;;;26.90;7.00;;;16.40;96.20;;;;;;5051228;28;20389;-71
2021/08/26 07:16:36;;;;;;;21.83;5.40;;;16.50;96.00;;;;;;5051846;28;20040;-73
2021/08/26 07:19:02;;;;;;;22.90;5.77;;;16.50;95.80;;;;;;5050903;28;20041;-74
2021/08/26 07:21:28;;;;;;;19.57;6.10;;;16.60;95.40;;;;;;5050350;28;20073;-73
2021/08/26 07:23:54;;;;;;;27.13;5.70;;;16.60;95.30;;;;;;5051336;28;20041;-74
2021/08/26 07:26:19;;;;;;;25.83;6.33;;;16.70;95.00;;;;;;5051859;28;20052;-72
2021/08/26 07:28:46;;;;;;;30.47;6.30;;;16.70;94.80;;;;;;5041073;28;20048;-73
2021/08/26 07:31:12;;;;;;;26.07;5.53;;;16.80;94.50;;;;;;5049738;28;20123;-72
2021/08/26 07:33:37;;;;;;;24.33;6.17;;;16.90;94.20;;;;;;5052891;28;20163;-73
2021/08/26 07:36:04;;;;;;;21.10;5.70;;;17.00;94.00;;;;;;5042031;28;20089;-72
2021/08/26 07:38:30;;;;;;;33.17;7.07;;;17.00;93.90;;;;;;5040632;28;20486;-72
2021/08/26 07:40:55;;;;;;;27.10;5.80;;;17.10;93.90;;;;;;5041790;28;20580;-73
2021/08/26 07:43:25;;;;;;;26.67;5.47;;;17.10;93.60;;;;;;5040780;28;20128;-72
2021/08/26 07:45:51;;;;;;;26.13;5.73;;;17.20;93.50;;;;;;5040206;28;20494;-73
2021/08/26 07:48:17;;;;;;;26.60;6.63;;;17.20;93.40;;;;;;5041793;28;20059;-73
2021/08/26 07:50:44;;;;;;;27.13;6.57;;;17.20;93.10;;;;;;5039483;28;20095;-73
2021/08/26 07:53:10;;;;;;;19.77;5.07;;;17.20;93.10;;;;;;5040041;28;20490;-72
2021/08/26 07:55:35;;;;;;;30.10;6.30;;;17.20;93.00;;;;;;5044752;28;20064;-72
2021/08/26 07:58:01;;;;;;;25.47;6.23;;;17.30;92.80;;;;;;5040266;28;20037;-73
2021/08/26 08:00:26;;;;;;;21.63;5.90;;;17.30;92.70;;;;;;5030535;28;20049;-74
2021/08/26 08:02:52;;;;;;;26.40;5.70;;;17.40;92.60;;;;;;5029928;28;20038;-74
2021/08/26 08:05:18;;;;;;;25.43;6.07;;;17.50;92.50;;;;;;5031028;28;20083;-74
2021/08/26 08:07:45;;;;;;;27.90;6.43;;;17.60;92.60;;;;;;5031072;28;20037;-73
2021/08/26 08:10:15;;;;;;;19.53;5.30;;;17.70;92.50;;;;;;5031775;28;20053;-72
2021/08/26 08:12:40;;;;;;;29.77;5.20;;;17.80;92.10;;;;;;5029343;28;20068;-73
2021/08/26 08:15:07;;;;;;;24.13;5.57;;;17.90;91.80;;;;;;5029991;28;20451;-73
2021/08/26 08:17:33;;;;;;;28.27;6.43;;;18.00;91.40;;;;;;5030188;28;20045;-73
2021/08/26 08:19:58;;;;;;;23.07;5.33;;;18.10;91.00;;;;;;5029053;28;20110;-72
2021/08/26 08:22:24;;;;;;;25.83;5.13;;;18.20;90.50;;;;;;5031251;28;20049;-71
2021/08/26 08:24:52;;;;;;;26.10;5.07;;;18.20;90.50;;;;;;5031146;28;20524;-72
2021/08/26 08:27:18;;;;;;;22.77;5.77;;;18.30;90.30;;;;;;5030480;28;20042;-72
2021/08/26 08:29:43;;;;;;;25.03;6.10;;;18.30;90.20;;;;;;5030791;28;20154;-73
2021/08/26 08:32:09;;;;;;;25.30;5.33;;;18.40;90.40;;;;;;5027898;28;20041;-73
2021/08/26 08:34:34;;;;;;;24.17;6.27;;;18.50;90.50;;;;;;5045922;28;20084;-72
2021/08/26 08:37:02;;;;;;;23.53;5.43;;;18.60;90.70;;;;;;5046385;28;20415;-72
2021/08/26 08:39:28;;;;;;;23.23;6.03;;;18.60;90.40;;;;;;5047010;28;20462;-74
2021/08/26 08:41:53;;;;;;;21.23;5.90;;;18.50;90.20;;;;;;5040881;28;20098;-70
2021/08/26 08:44:19;;;;;;;22.03;5.20;;;18.70;90.00;;;;;;5036193;28;20111;-71
2021/08/26 08:46:48;;;;;;;21.20;5.67;;;18.70;89.20;;;;;;5035291;28;20037;-71
2021/08/26 08:49:18;;;;;;;27.10;6.37;;;18.80;89.30;;;;;;5027524;28;20057;-73
2021/08/26 08:51:43;;;;;;;21.63;5.37;;;18.80;89.50;;;;;;5031030;28;20077;-72
2021/08/26 08:54:09;;;;;;;24.00;5.20;;;18.90;89.10;;;;;;5044939;28;20082;-72
2021/08/26 08:56:35;;;;;;;23.63;5.57;;;18.90;89.30;;;;;;5046374;28;20045;-72
2021/08/26 08:59:01;;;;;;;19.53;4.83;;;18.80;88.60;;;;;;5046329;28;20095;-73
2021/08/26 09:01:29;;;;;;;20.87;5.37;;;18.70;88.90;;;;;;5044688;28;20052;-72
2021/08/26 09:03:55;;;;;;;25.03;5.50;;;18.70;89.30;;;;;;5045517;28;20052;-72
2021/08/26 09:06:21;;;;;;;20.67;5.47;;;18.80;88.50;;;;;;5046247;28;20045;-73
2021/08/26 09:09:04;;;;;;;17.30;4.30;;;18.90;88.40;;;;;;5045020;28;20128;-71
2021/08/26 09:11:30;;;;;;;23.63;4.93;;;19.00;84.70;;;;;;5046416;28;20060;-70
2021/08/26 09:14:06;;;;;;;22.50;5.03;;;19.10;85.90;;;;;;5045449;28;20092;-71
2021/08/26 09:16:40;;;;;;;16.10;4.30;;;19.10;85.40;;;;;;5045405;28;20057;-73
2021/08/26 09:19:30;;;;;;;20.83;4.57;;;19.20;84.60;;;;;;5027569;28;20045;-76
2021/08/26 09:22:03;;;;;;;20.50;4.73;;;19.20;83.60;;;;;;5017559;28;20109;-75
2021/08/26 09:24:48;;;;;;;17.67;4.50;;;19.30;83.80;;;;;;5028941;28;20038;-70
2021/08/26 09:27:32;;;;;;;17.83;5.70;;;19.40;84.80;;;;;;5042207;28;20045;-73
2021/08/26 09:30:19;;;;;;;17.57;5.00;;;19.50;82.70;;;;;;5033786;28;20098;-76
2021/08/26 09:33:00;;;;;;;21.00;4.20;;;19.60;82.10;;;;;;5045967;28;20045;-76
2021/08/26 09:35:31;;;;;;;18.60;4.07;;;19.40;80.80;;;;;;5044652;28;20053;-72
2021/08/26 09:38:03;;;;;;;15.43;4.00;;;19.30;81.60;;;;;;5045747;28;20045;-73
2021/08/26 09:40:31;;;;;;;13.85;3.60;;;19.30;80.40;;;;;;5046553;28;20041;-73
2021/08/26 09:43:02;;;;;;;16.03;4.20;;;19.20;79.50;;;;;;5048657;28;20045;-74
2021/08/26 09:45:30;;;;;;;14.45;3.97;;;19.30;77.00;;;;;;5050774;28;20049;-73
2021/08/26 09:48:01;;;;;;;16.77;4.40;;;19.40;77.80;;;;;;5050016;28;20049;-73
2021/08/26 09:50:41;;;;;;;14.63;3.95;;;19.40;76.50;;;;;;5048791;28;20379;-74
2021/08/26 09:53:08;;;;;;;17.27;4.07;;;19.50;75.80;;;;;;5049727;28;20057;-73
2021/08/26 09:55:48;;;;;;;16.40;4.27;;;19.50;77.20;;;;;;5051028;28;20397;-73
2021/08/26 09:58:26;;;;;;;15.05;4.15;;;19.60;77.60;;;;;;5048519;28;20065;-74
2021/08/26 10:01:24;;;;;;;17.13;4.30;;;19.50;78.10;;;;;;5048646;28;20045;-74
2021/08/26 10:03:50;;;;;;;16.53;4.30;;;19.50;78.60;;;;;;5014445;28;20053;-73
2021/08/26 10:06:17;;;;;;;18.17;5.07;;;19.40;79.70;;;;;;5049386;28;20389;-72
2021/08/26 10:08:49;;;;;;;18.57;5.10;;;19.40;80.20;;;;;;5053298;28;20072;-74
2021/08/26 10:11:17;;;;;;;19.50;5.03;;;19.40;79.70;;;;;;5053072;28;20067;-74
2021/08/26 10:13:44;;;;;;;16.63;4.07;;;19.50;80.80;;;;;;5051910;28;20052;-74
2021/08/26 10:16:10;;;;;;;14.50;4.50;;;19.50;79.60;;;;;;5053740;28;20057;-73
2021/08/26 10:18:36;;;;;;;19.43;4.70;;;19.50;79.00;;;;;;5051241;28;20094;-73
2021/08/26 10:21:03;;;;;;;15.23;4.20;;;19.50;79.10;;;;;;5053163;28;20049;-74
2021/08/26 10:23:30;;;;;;;24.00;5.43;;;19.30;79.60;;;;;;5053398;28;20064;-73
2021/08/26 10:25:57;;;;;;;17.93;4.97;;;19.20;80.90;;;;;;5051265;28;20055;-73
2021/08/26 10:28:24;;;;;;;16.53;4.47;;;19.10;81.60;;;;;;5053735;28;20048;-74
2021/08/26 10:30:50;;;;;;;14.23;4.73;;;19.00;83.00;;;;;;5052249;28;20045;-73
2021/08/26 10:33:26;;;;;;;16.67;4.67;;;18.80;83.80;;;;;;5051605;28;20044;-74
2021/08/26 10:36:00;;;;;;;16.80;6.03;;;18.50;85.10;;;;;;5052403;28;20073;-74
2021/08/26 10:38:35;;;;;;;26.10;5.63;;;18.30;87.10;;;;;;5051447;28;20087;-74
2021/08/26 10:41:19;;;;;;;26.37;6.00;;;18.20;89.00;;;;;;5051984;28;20041;-75
2021/08/26 10:43:55;;;;;;;24.67;6.43;;;18.10;90.40;;;;;;5052121;28;20053;-75
2021/08/26 10:46:50;;;;;;;22.93;5.53;;;18.20;90.80;;;;;;5052876;28;20140;-74
2021/08/26 10:49:17;;;;;;;17.67;5.43;;;18.30;91.70;;;;;;5053367;28;20041;-74
2021/08/26 10:51:46;;;;;;;21.60;4.90;;;18.40;90.90;;;;;;5052421;28;20505;-74
2021/08/26 10:54:31;;;;;;;18.03;4.77;;;18.60;90.70;;;;;;5052615;28;20045;-74
2021/08/26 10:57:18;;;;;;;18.70;4.17;;;18.80;90.40;;;;;;5051755;28;20060;-73
2021/08/26 10:59:43;;;;;;;23.40;4.47;;;18.90;89.90;;;;;;5051375;28;20124;-74
2021/08/26 11:02:41;;;;;;;23.00;4.33;;;18.90;89.20;;;;;;5051398;28;20489;-74
2021/08/26 11:05:32;;;;;;;16.53;3.57;;;18.80;88.10;;;;;;5052052;28;20087;-74
2021/08/26 11:07:58;;;;;;;14.75;3.33;;;18.80;88.30;;;;;;5052235;28;20706;-74
2021/08/26 11:10:25;;;;;;;17.00;2.53;;;18.70;88.10;;;;;;5052959;28;20132;-74
2021/08/26 11:12:51;;;;;;;13.47;2.83;;;18.70;87.00;;;;;;5051003;28;20071;-74
2021/08/26 11:15:35;;;;;;;13.33;2.60;;;18.80;85.90;;;;;;5051867;28;20045;-74
2021/08/26 11:18:25;;;;;;;9.83;2.30;;;18.90;85.60;;;;;;5052309;28;20123;-74
2021/08/26 11:20:51;;;;;;;12.53;2.97;;;19.10;83.40;;;;;;5051340;28;20064;-74
2021/08/26 11:23:17;;;;;;;15.10;2.50;;;19.30;83.10;;;;;;5050291;28;20041;-74
2021/08/26 11:25:43;;;;;;;12.03;1.77;;;19.70;82.50;;;;;;5050994;28;20531;-73
2021/08/26 11:28:29;;;;;;;7.87;1.40;;;20.00;80.80;;;;;;5050208;28;20080;-73
2021/08/26 11:31:13;;;;;;;7.40;1.20;;;20.00;79.30;;;;;;5051013;28;20052;-74
2021/08/26 11:33:39;;;;;;;6.07;1.00;;;19.90;77.00;;;;;;5050843;28;20486;-74
2021/08/26 11:36:13;;;;;;;6.60;1.17;;;19.70;77.90;;;;;;5051464;28;20048;-74
2021/08/26 11:38:49;;;;;;;10.40;1.40;;;19.70;77.30;;;;;;5051992;28;20041;-74
2021/08/26 11:41:15;;;;;;;6.77;1.13;;;19.60;77.00;;;;;;5050976;28;20149;-74
2021/08/26 11:43:42;;;;;;;5.13;1.07;;;19.50;77.90;;;;;;5051221;28;20143;-74
2021/08/26 11:46:16;;;;;;;4.80;0.80;;;19.50;78.00;;;;;;5050788;28;20045;-74
2021/08/26 11:48:53;;;;;;;3.37;0.57;;;19.50;77.40;;;;;;5050225;28;20049;-73
2021/08/26 11:51:25;;;;;;;3.47;0.93;;;19.60;76.80;;;;;;5050083;28;20049;-74
2021/08/26 11:53:51;;;;;;;;;;;19.70;76.20;;;;;;5052276;28;20097;-74
2021/08/26 11:56:16;;;;;;;5.77;0.83;;;19.80;76.10;;;;;;5050243;28;20460;-74
2021/08/26 11:58:42;;;;;;;7.17;0.87;;;19.90;75.10;;;;;;5050281;28;20037;-73
2021/08/26 12:01:08;;;;;;;4.97;0.73;;;20.10;74.00;;;;;;5051753;28;20179;-73
2021/08/26 12:03:33;;;;;;;7.67;0.93;;;20.20;72.80;;;;;;5048988;28;20402;-73
2021/08/26 12:06:08;;;;;;;6.70;0.70;;;20.30;71.80;;;;;;5050662;28;20124;-73
2021/08/26 12:08:45;;;;;;;10.33;1.17;;;20.30;72.10;;;;;;5051966;28;20065;-73
2021/08/26 12:11:11;;;;;;;6.33;1.07;;;20.30;72.60;;;;;;5050987;28;20084;-74
2021/08/26 12:13:36;;;;;;;9.27;0.93;;;20.40;72.80;;;;;;5051704;28;20081;-74
2021/08/26 12:16:02;;;;;;;9.30;0.97;;;20.30;71.80;;;;;;5051524;28;20060;-74
2021/08/26 12:18:32;;;;;;;5.47;1.00;;;20.20;71.50;;;;;;5051573;28;20045;-74
2021/08/26 12:21:05;;;;;;;5.40;1.03;;;20.10;72.00;;;;;;5050005;28;20056;-74
2021/08/26 12:23:33;;;;;;;4.80;0.87;;;20.20;72.00;;;;;;5051696;28;20056;-74
2021/08/26 12:26:10;;;;;;;3.87;0.57;;;20.20;71.30;;;;;;5049547;28;20516;-73
2021/08/26 12:28:46;;;;;;;6.10;1.20;;;20.20;71.20;;;;;;5051632;28;20453;-74
2021/08/26 12:31:21;;;;;;;4.53;0.63;;;20.30;71.40;;;;;;5051408;28;20048;-73
2021/08/26 12:33:57;;;;;;;11.40;1.17;;;20.30;71.10;;;;;;5051311;28;20502;-73
2021/08/26 12:36:22;;;;;;;8.73;1.10;;;20.40;70.70;;;;;;5050395;28;20077;-74
2021/08/26 12:38:48;;;;;;;4.80;1.00;;;20.40;70.40;;;;;;5050166;28;20064;-73
2021/08/26 12:41:17;;;;;;;6.53;1.00;;;20.30;70.10;;;;;;5049890;28;20049;-74
2021/08/26 12:43:51;;;;;;;4.30;0.57;;;20.30;70.00;;;;;;5050105;28;20040;-73
2021/08/26 12:46:26;;;;;;;8.67;0.80;;;20.20;68.90;;;;;;5050770;28;20037;-74